Time,TemperatureF,DewpointF,PressureIn,WindDirection,WindDirectionDegrees,WindSpeedMPH,WindSpeedGustMPH,Humidity,HourlyPrecipIn,Conditions,Clouds,dailyrainin,SoftwareType,DateUTC
2013-01-22 04:43:00,11.0,2.0,-100.00,North,-999,0.0,0.0,66,-99.99,,,-99.99,,2013-01-22 12:43:00,
2013-01-22 04:53:00,9.0,2.0,-100.00,North,-999,0.0,0.0,71,-99.99,,,-99.99,,2013-01-22 12:53:00,
2013-01-22 05:03:00,9.0,2.0,-100.00,North,-999,0.0,0.0,71,-99.99,,,-99.99,,2013-01-22 13:03:00,
2013-01-22 05:33:00,16.0,4.0,-100.00,North,-999,0.0,0.0,60,-99.99,,,-99.99,,2013-01-22 13:33:00,
2013-01-22 05:43:00,16.0,5.0,-100.00,North,-999,0.0,0.0,62,-99.99,,,-99.99,,2013-01-22 13:43:00,
2013-01-22 05:53:00,15.0,5.0,-100.00,North,-999,0.0,0.0,64,-99.99,,,-99.99,,2013-01-22 13:53:00,
2013-01-22 06:02:00,15.0,5.0,-100.00,North,-999,0.0,0.0,64,-99.99,,,-99.99,,2013-01-22 14:02:00,
2013-01-22 06:12:00,8.0,2.0,-100.00,North,-999,0.0,0.0,74,-99.99,,,-99.99,,2013-01-22 14:12:00,
2013-01-22 06:22:00,8.0,1.0,-100.00,North,-999,0.0,0.0,72,-99.99,,,-99.99,,2013-01-22 14:22:00,
2013-01-22 06:33:00,8.0,1.0,-100.00,North,-999,0.0,0.0,72,-99.99,,,-99.99,,2013-01-22 14:33:00,
2013-01-22 06:43:00,13.0,4.0,-100.00,North,-999,0.0,0.0,66,-99.99,,,-99.99,,2013-01-22 14:43:00,
2013-01-22 06:53:00,14.0,5.0,-100.00,North,-999,0.0,0.0,64,-99.99,,,-99.99,,2013-01-22 14:53:00,
2013-01-22 07:03:00,15.0,3.0,-100.00,North,-999,0.0,0.0,59,-99.99,,,-99.99,,2013-01-22 15:03:00,
2013-01-22 07:12:00,14.0,4.0,-100.00,North,-999,0.0,0.0,63,-99.99,,,-99.99,,2013-01-22 15:12:00,
2013-01-22 07:23:00,14.0,4.0,-100.00,North,-999,0.0,0.0,61,-99.99,,,-99.99,,2013-01-22 15:23:00,
2013-01-22 07:33:00,14.0,4.0,-100.00,North,-999,0.0,0.0,61,-99.99,,,-99.99,,2013-01-22 15:33:00,
2013-01-22 07:43:00,13.0,4.0,-100.00,North,-999,0.0,0.0,65,-99.99,,,-99.99,,2013-01-22 15:43:00,
2013-01-22 07:53:00,13.0,4.0,-100.00,North,-999,0.0,0.0,65,-99.99,,,-99.99,,2013-01-22 15:53:00,
2013-01-22 08:03:00,14.0,3.0,-100.00,North,-999,0.0,0.0,60,-99.99,,,-99.99,,2013-01-22 16:03:00,
2013-01-22 08:12:00,17.0,4.0,-100.00,North,-999,0.0,0.0,56,-99.99,,,-99.99,,2013-01-22 16:12:00,
2013-01-22 08:23:00,20.0,5.0,-100.00,North,-999,0.0,0.0,51,-99.99,,,-99.99,,2013-01-22 16:23:00,
2013-01-22 08:33:00,20.0,4.0,-100.00,North,-999,0.0,0.0,51,-99.99,,,-99.99,,2013-01-22 16:33:00,
2013-01-22 08:43:00,20.0,4.0,-100.00,North,-999,0.0,0.0,51,-99.99,,,-99.99,,2013-01-22 16:43:00,
2013-01-22 08:53:00,19.0,4.0,-100.00,North,-999,0.0,0.0,52,-99.99,,,-99.99,,2013-01-22 16:53:00,
2013-01-22 09:03:00,18.0,5.0,-100.00,North,-999,0.0,0.0,55,-99.99,,,-99.99,,2013-01-22 17:03:00,
2013-01-22 09:44:00,28.0,9.0,-100.00,North,-999,0.0,0.0,44,-99.99,,,-99.99,,2013-01-22 17:44:00,
2013-01-22 09:53:00,30.0,10.0,-100.00,North,-999,0.0,0.0,44,-99.99,,,-99.99,,2013-01-22 17:53:00,
2013-01-22 10:03:00,29.0,10.0,-100.00,North,-999,0.0,0.0,43,-99.99,,,-99.99,,2013-01-22 18:03:00,
2013-01-22 10:12:00,29.0,10.0,-100.00,North,-999,0.0,0.0,43,-99.99,,,-99.99,,2013-01-22 18:12:00,
2013-01-22 10:23:00,31.0,10.0,-100.00,North,-999,0.0,0.0,40,-99.99,,,-99.99,,2013-01-22 18:23:00,
2013-01-22 10:33:00,28.0,9.0,-100.00,North,-999,0.0,0.0,43,-99.99,,,-99.99,,2013-01-22 18:33:00,
2013-01-22 10:43:00,30.0,11.0,-100.00,North,-999,0.0,0.0,44,-99.99,,,-99.99,,2013-01-22 18:43:00,
2013-01-22 10:53:00,33.0,13.0,-100.00,North,-999,0.0,0.0,42,-99.99,,,-99.99,,2013-01-22 18:53:00,
2013-01-22 11:03:00,33.0,11.0,-100.00,North,-999,0.0,0.0,39,-99.99,,,-99.99,,2013-01-22 19:03:00,
2013-01-22 11:13:00,36.0,11.0,-100.00,North,-999,0.0,0.0,35,-99.99,,,-99.99,,2013-01-22 19:13:00,
2013-01-22 11:23:00,33.0,12.0,-100.00,North,-999,0.0,0.0,40,-99.99,,,-99.99,,2013-01-22 19:23:00,
2013-01-22 11:33:00,33.0,12.0,-100.00,North,-999,0.0,0.0,40,-99.99,,,-99.99,,2013-01-22 19:33:00,
2013-01-22 11:43:00,35.0,11.0,-100.00,North,-999,0.0,0.0,37,-99.99,,,-99.99,,2013-01-22 19:43:00,
2013-01-22 11:53:00,39.0,15.0,-100.00,North,-999,0.0,0.0,36,-99.99,,,-99.99,,2013-01-22 19:53:00,
2013-01-22 12:03:00,41.0,16.0,-100.00,North,-999,0.0,0.0,35,-99.99,,,-99.99,,2013-01-22 20:03:00,
2013-01-22 12:12:00,40.0,16.0,-100.00,North,-999,0.0,0.0,37,-99.99,,,-99.99,,2013-01-22 20:12:00,
2013-01-22 12:23:00,41.0,15.0,-100.00,North,-999,0.0,0.0,34,-99.99,,,-99.99,,2013-01-22 20:23:00,
2013-01-22 12:33:00,42.0,15.0,-100.00,North,-999,0.0,0.0,33,-99.99,,,-99.99,,2013-01-22 20:33:00,
2013-01-22 12:42:00,43.0,16.0,-100.00,North,-999,0.0,0.0,32,-99.99,,,-99.99,,2013-01-22 20:42:00,
2013-01-22 12:53:00,44.0,14.0,-100.00,North,-999,0.0,0.0,29,-99.99,,,-99.99,,2013-01-22 20:53:00,
2013-01-22 13:03:00,45.0,17.0,-100.00,North,-999,0.0,0.0,33,-99.99,,,-99.99,,2013-01-22 21:03:00,
2013-01-22 13:22:00,51.0,18.0,-100.00,North,-999,0.0,0.0,26,-99.99,,,-99.99,,2013-01-22 21:22:00,
2013-01-22 13:33:00,51.0,18.0,-100.00,North,-999,0.0,0.0,26,-99.99,,,-99.99,,2013-01-22 21:33:00,
2013-01-22 13:43:00,55.0,20.0,-100.00,North,-999,0.0,0.0,25,-99.99,,,-99.99,,2013-01-22 21:43:00,
2013-01-22 13:52:00,53.0,19.0,-100.00,North,-999,0.0,0.0,26,-99.99,,,-99.99,,2013-01-22 21:52:00,
2013-01-22 14:02:00,51.0,19.0,-100.00,North,-999,0.0,0.0,28,-99.99,,,-99.99,,2013-01-22 22:02:00,
2013-01-22 14:12:00,49.0,24.0,-100.00,North,-999,0.0,0.0,38,-99.99,,,-99.99,,2013-01-22 22:12:00,
2013-01-22 14:22:00,50.0,19.0,-100.00,SE,138,3.0,6.0,29,-99.99,,,-99.99,,2013-01-22 22:22:00,
2013-01-22 14:32:00,50.0,19.0,-100.00,SE,138,3.0,6.0,29,-99.99,,,-99.99,,2013-01-22 22:32:00,
2013-01-22 14:43:00,48.0,20.0,-100.00,SE,138,6.0,9.0,32,-99.99,,,-99.99,,2013-01-22 22:43:00,
2013-01-22 14:53:00,45.0,18.0,-100.00,SE,130,7.0,11.0,34,-99.99,,,-99.99,,2013-01-22 22:53:00,
2013-01-22 15:02:00,49.0,15.0,-100.00,SSE,148,8.0,13.0,26,-99.99,,,-99.99,,2013-01-22 23:02:00,
2013-01-22 15:12:00,49.0,13.0,-100.00,SSE,155,11.0,18.0,23,-99.99,,,-99.99,,2013-01-22 23:12:00,
2013-01-22 15:23:00,49.0,13.0,-100.00,SSE,155,11.0,18.0,23,-99.99,,,-99.99,,2013-01-22 23:23:00,
2013-01-22 15:33:00,49.0,13.0,-100.00,SSE,155,11.0,18.0,23,-99.99,,,-99.99,,2013-01-22 23:33:00,
2013-01-22 15:42:00,47.0,19.0,-100.00,South,176,14.0,16.0,32,-99.99,,,-99.99,,2013-01-22 23:42:00,
2013-01-22 15:53:00,47.0,18.0,-100.00,South,174,12.0,15.0,31,-99.99,,,-99.99,,2013-01-22 23:53:00,
2013-01-22 16:02:00,46.0,19.0,-100.00,SSE,165,11.0,14.0,33,-99.99,,,-99.99,,2013-01-23 00:02:00,
2013-01-22 16:12:00,46.0,18.0,-100.00,SSE,167,10.0,13.0,32,-99.99,,,-99.99,,2013-01-23 00:12:00,
2013-01-22 16:22:00,45.0,18.0,-100.00,South,169,11.0,14.0,34,-99.99,,,-99.99,,2013-01-23 00:22:00,
2013-01-22 16:33:00,44.0,20.0,-100.00,SSE,168,10.0,13.0,38,-99.99,,,-99.99,,2013-01-23 00:33:00,
2013-01-22 16:42:00,41.0,21.0,-100.00,SE,141,8.0,11.0,44,-99.99,,,-99.99,,2013-01-23 00:42:00,
2013-01-22 16:52:00,42.0,18.0,-100.00,SE,140,7.0,11.0,37,-99.99,,,-99.99,,2013-01-23 00:52:00,
2013-01-22 17:02:00,41.0,18.0,-100.00,SSE,150,7.0,10.0,39,-99.99,,,-99.99,,2013-01-23 01:02:00,
2013-01-22 17:12:00,39.0,18.0,-100.00,SSE,152,6.0,9.0,42,-99.99,,,-99.99,,2013-01-23 01:12:00,
2013-01-22 17:22:00,41.0,14.0,-100.00,SE,143,6.0,11.0,33,-99.99,,,-99.99,,2013-01-23 01:22:00,
2013-01-22 17:32:00,41.0,14.0,-100.00,SE,143,6.0,11.0,33,-99.99,,,-99.99,,2013-01-23 01:32:00,
2013-01-22 17:42:00,38.0,12.0,-100.00,ESE,121,8.0,11.0,35,-99.99,,,-99.99,,2013-01-23 01:42:00,
2013-01-22 17:52:00,39.0,14.0,-100.00,SE,126,8.0,11.0,35,-99.99,,,-99.99,,2013-01-23 01:52:00,
2013-01-22 18:03:00,38.0,13.0,-100.00,SE,131,9.0,12.0,35,-99.99,,,-99.99,,2013-01-23 02:03:00,
2013-01-22 18:12:00,36.0,14.0,-100.00,SE,140,8.0,11.0,40,-99.99,,,-99.99,,2013-01-23 02:12:00,
2013-01-22 18:22:00,36.0,13.0,-100.00,SE,131,7.0,10.0,38,-99.99,,,-99.99,,2013-01-23 02:22:00,
2013-01-22 18:33:00,36.0,12.0,-100.00,ESE,119,9.0,12.0,37,-99.99,,,-99.99,,2013-01-23 02:33:00,
2013-01-22 18:42:00,36.0,10.0,-100.00,SE,126,9.0,12.0,33,-99.99,,,-99.99,,2013-01-23 02:42:00,
2013-01-22 18:53:00,34.0,13.0,-100.00,ESE,113,10.0,13.0,42,-99.99,,,-99.99,,2013-01-23 02:53:00,
2013-01-22 19:02:00,34.0,13.0,-100.00,ESE,104,10.0,12.0,40,-99.99,,,-99.99,,2013-01-23 03:02:00,
2013-01-22 19:12:00,34.0,13.0,-100.00,ESE,109,9.0,11.0,41,-99.99,,,-99.99,,2013-01-23 03:12:00,
2013-01-22 19:22:00,34.0,13.0,-100.00,ESE,109,9.0,11.0,41,-99.99,,,-99.99,,2013-01-23 03:22:00,
2013-01-22 19:32:00,31.0,13.0,-100.00,ESE,109,10.0,12.0,47,-99.99,,,-99.99,,2013-01-23 03:32:00,
2013-01-22 19:42:00,31.0,13.0,-100.00,ESE,120,8.0,12.0,46,-99.99,,,-99.99,,2013-01-23 03:42:00,
2013-01-22 19:53:00,30.0,13.0,-100.00,South,191,3.0,8.0,48,-99.99,,,-99.99,,2013-01-23 03:53:00,
2013-01-22 20:02:00,30.0,12.0,-100.00,SE,145,2.0,4.0,46,-99.99,,,-99.99,,2013-01-23 04:02:00,
2013-01-22 20:12:00,25.0,12.0,-100.00,East,88,5.0,9.0,58,-99.99,,,-99.99,,2013-01-23 04:12:00,
2013-01-22 20:22:00,28.0,12.0,-100.00,NE,49,4.0,10.0,51,-99.99,,,-99.99,,2013-01-23 04:22:00,
2013-01-22 20:32:00,28.0,12.0,-100.00,NE,49,4.0,10.0,51,-99.99,,,-99.99,,2013-01-23 04:32:00,
2013-01-22 21:03:00,23.0,13.0,-100.00,SW,217,2.0,4.0,64,-99.99,,,-99.99,,2013-01-23 05:03:00,
2013-01-22 21:12:00,25.0,13.0,-100.00,ESE,123,1.0,3.0,61,-99.99,,,-99.99,,2013-01-23 05:12:00,
2013-01-22 21:22:00,23.0,11.0,-100.00,ENE,62,6.0,10.0,60,-99.99,,,-99.99,,2013-01-23 05:22:00,
2013-01-22 21:33:00,24.0,11.0,-100.00,ENE,62,8.0,10.0,57,-99.99,,,-99.99,,2013-01-23 05:33:00,
2013-01-22 21:42:00,30.0,8.0,-100.00,ESE,116,5.0,8.0,40,-99.99,,,-99.99,,2013-01-23 05:42:00,
2013-01-22 21:52:00,25.0,9.0,-100.00,SE,145,5.0,8.0,51,-99.99,,,-99.99,,2013-01-23 05:52:00,
2013-01-22 22:02:00,16.0,8.0,-100.00,SSW,199,4.0,6.0,72,-99.99,,,-99.99,,2013-01-23 06:02:00,
2013-01-22 22:12:00,17.0,10.0,-100.00,South,171,2.0,4.0,73,-99.99,,,-99.99,,2013-01-23 06:12:00,
2013-01-22 22:22:00,20.0,8.0,-100.00,SE,130,3.0,4.0,60,-99.99,,,-99.99,,2013-01-23 06:22:00,
2013-01-22 22:32:00,20.0,8.0,-100.00,SE,130,3.0,4.0,60,-99.99,,,-99.99,,2013-01-23 06:32:00,
2013-01-22 22:42:00,25.0,9.0,-100.00,SE,131,2.0,5.0,51,-99.99,,,-99.99,,2013-01-23 06:42:00,
2013-01-22 22:52:00,24.0,9.0,-100.00,South,184,5.0,7.0,52,-99.99,,,-99.99,,2013-01-23 06:52:00,
2013-01-22 23:02:00,19.0,8.0,-100.00,South,169,5.0,6.0,61,-99.99,,,-99.99,,2013-01-23 07:02:00,
2013-01-22 23:22:00,22.0,9.0,-100.00,SE,130,8.0,10.0,58,-99.99,,,-99.99,,2013-01-23 07:22:00,
2013-01-22 23:33:00,21.0,8.0,-100.00,SE,134,7.0,9.0,55,-99.99,,,-99.99,,2013-01-23 07:33:00,
2013-01-22 23:42:00,21.0,9.0,-100.00,SSE,152,6.0,9.0,58,-99.99,,,-99.99,,2013-01-23 07:42:00,
2013-01-22 23:52:00,20.0,8.0,-100.00,SE,138,5.0,7.0,59,-99.99,,,-99.99,,2013-01-23 07:52:00,